Dickens, Iowa
Current Conditions -  °F | °C
As of 5:53 PM on Monday 22 Dec 2014 (Local Time) from KSPW Reporting Station
Light Rain Light Rain  
Wind Chill: 28°   Ceiling: 500
Heat Index: 37°   Visibility: 3mi
Dew Point: 35°   Wind: 14mph
Humidity: 93%   Direction: 110°ESE
Pressure: 29.47"   Gusts: NA
Location:  43.13°N, 95.02°W
Report Text: KSPW 222353Z AUTO 11012KT 3SM -RA BR OVC005 03/02 A2947 RMK AO2 SLP988 P0001 60002 T00280017 10050 20028 52004 TSNO
Loading
Personal Weather Stations






























Interactive Weather Map New forecast layout! Learn more

10-Day Weather Forecast

Advertisements
Track Severe Weather on mobile